createdAt,value
2022-10-19T00:00:33.664Z,79.42
2022-10-19T00:03:00.418Z,78.91
2022-10-19T00:05:28.285Z,79.07
2022-10-19T00:07:55.799Z,78.34
2022-10-19T00:10:22.744Z,78.06
2022-10-19T00:12:49.550Z,78.83
2022-10-19T00:15:16.535Z,78.84
2022-10-19T00:17:43.505Z,78.98
2022-10-19T00:20:11.486Z,77.89
2022-10-19T00:22:38.653Z,77.75
2022-10-19T00:25:05.965Z,77.25
2022-10-19T00:27:32.889Z,77.26
2022-10-19T00:29:59.836Z,76.84
2022-10-19T00:32:26.632Z,77.46
2022-10-19T00:34:53.481Z,77.81
2022-10-19T00:37:20.288Z,78.10
2022-10-19T00:39:47.173Z,78.55
2022-10-19T00:42:13.966Z,79.15
2022-10-19T00:44:40.757Z,78.96
2022-10-19T00:47:08.618Z,79.23
2022-10-19T00:49:44.260Z,79.62
2022-10-19T00:52:15.213Z,80.18
2022-10-19T00:54:44.656Z,80.82
2022-10-19T00:57:12.347Z,81.13
2022-10-19T00:59:41.329Z,81.56
2022-10-19T01:02:08.148Z,81.39
2022-10-19T01:04:38.950Z,81.57
2022-10-19T01:07:08.267Z,81.30
2022-10-19T01:09:35.189Z,81.37
2022-10-19T01:12:38.898Z,81.79
2022-10-19T01:15:27.354Z,81.93
2022-10-19T01:18:19.138Z,82.05
2022-10-19T01:21:16.824Z,81.43
2022-10-19T01:24:20.232Z,81.86
2022-10-19T01:27:23.664Z,81.52
2022-10-19T01:29:59.241Z,81.24
2022-10-19T01:32:35.904Z,81.58
2022-10-19T01:35:26.161Z,82.15
2022-10-19T01:38:15.867Z,81.95
2022-10-19T01:40:53.545Z,82.44
2022-10-19T01:43:29.176Z,82.42
2022-10-19T01:46:07.261Z,82.45
2022-10-19T01:48:38.011Z,82.65
2022-10-19T01:51:20.222Z,83.33
2022-10-19T01:53:53.167Z,82.92
2022-10-19T01:56:24.878Z,83.11
2022-10-19T01:58:54.254Z,82.69
2022-10-19T02:01:23.200Z,82.29
2022-10-19T02:03:53.255Z,81.93
2022-10-19T02:06:21.090Z,80.85
2022-10-19T02:08:50.915Z,81.16
2022-10-19T02:11:19.354Z,80.99
2022-10-19T02:13:51.723Z,81.70
2022-10-19T02:16:28.295Z,80.47
2022-10-19T02:18:56.565Z,80.13
2022-10-19T02:21:24.015Z,79.76
2022-10-19T02:23:53.376Z,80.01
2022-10-19T02:26:21.462Z,80.99
2022-10-19T02:28:49.143Z,81.42
2022-10-19T02:31:16.623Z,80.90
2022-10-19T02:33:43.703Z,81.62
2022-10-19T02:36:10.625Z,80.97
2022-10-19T02:38:37.487Z,81.55
2022-10-19T02:41:22.862Z,81.05
2022-10-19T02:44:00.552Z,81.42
2022-10-19T02:46:42.861Z,80.80
2022-10-19T02:49:11.937Z,81.02
2022-10-19T02:51:54.800Z,80.68
2022-10-19T02:54:22.118Z,80.81
2022-10-19T02:56:48.934Z,81.04
2022-10-19T02:59:15.850Z,81.48
2022-10-19T03:01:42.705Z,82.00
2022-10-19T03:04:09.746Z,81.59
2022-10-19T03:06:36.640Z,81.40
2022-10-19T03:09:04.052Z,81.64
2022-10-19T03:11:31.098Z,81.12
2022-10-19T03:13:57.929Z,80.92
2022-10-19T03:16:24.722Z,80.48
2022-10-19T03:18:51.962Z,80.75
2022-10-19T03:21:19.915Z,80.86
2022-10-19T03:23:46.889Z,80.85
2022-10-19T03:26:16.798Z,81.52
2022-10-19T03:28:43.674Z,81.90
2022-10-19T03:31:10.519Z,82.80
2022-10-19T03:33:37.338Z,83.35
2022-10-19T03:36:35.153Z,83.49
2022-10-19T03:39:08.744Z,82.75
2022-10-19T03:41:37.287Z,83.05
2022-10-19T03:44:04.812Z,83.21
2022-10-19T03:46:31.948Z,84.04
2022-10-19T03:48:58.922Z,83.93
2022-10-19T03:51:30.267Z,84.50
2022-10-19T03:54:07.121Z,84.94
2022-10-19T03:56:35.701Z,85.31
2022-10-19T03:59:04.977Z,86.91
2022-10-19T04:01:37.976Z,86.78
2022-10-19T04:04:07.619Z,85.73
2022-10-19T04:06:37.143Z,85.55
2022-10-19T04:09:04.917Z,85.04
2022-10-19T04:11:33.624Z,84.61
2022-10-19T04:14:01.572Z,85.02
2022-10-19T04:16:30.565Z,84.92
2022-10-19T04:18:58.213Z,84.87
2022-10-19T04:21:30.975Z,85.27
2022-10-19T04:24:02.970Z,85.73
2022-10-19T04:26:30.600Z,85.95
2022-10-19T04:29:01.735Z,85.91
2022-10-19T04:31:29.526Z,86.40
2022-10-19T04:33:57.435Z,86.63
2022-10-19T04:36:24.329Z,87.74
2022-10-19T04:38:51.683Z,89.33
2022-10-19T04:41:21.095Z,90.08
2022-10-19T04:43:48.218Z,90.45
2022-10-19T04:46:17.680Z,89.32
2022-10-19T04:48:45.408Z,89.33
2022-10-19T04:51:12.464Z,88.32
2022-10-19T04:53:40.927Z,88.87
2022-10-19T04:56:11.997Z,88.21
2022-10-19T04:58:38.843Z,87.94
2022-10-19T05:01:20.136Z,87.88
2022-10-19T05:03:48.434Z,90.55
2022-10-19T05:06:15.901Z,89.31
2022-10-19T05:08:43.016Z,88.84
2022-10-19T05:11:13.200Z,88.76
2022-10-19T05:13:40.609Z,89.13
2022-10-19T05:16:10.978Z,89.05
2022-10-19T05:18:38.228Z,89.28
2022-10-19T05:21:13.633Z,89.80
2022-10-19T05:23:41.976Z,89.46
2022-10-19T05:26:12.067Z,89.63
2022-10-19T05:28:39.272Z,89.38
2022-10-19T05:31:12.024Z,88.70
2022-10-19T05:33:39.602Z,88.61
2022-10-19T05:36:21.555Z,88.43
2022-10-19T05:38:50.407Z,87.42
2022-10-19T05:41:17.602Z,87.25
2022-10-19T05:43:45.312Z,86.82
2022-10-19T05:46:15.287Z,86.29
2022-10-19T05:48:42.242Z,86.04
2022-10-19T05:51:12.003Z,85.67
2022-10-19T05:56:29.119Z,84.30
2022-10-19T05:59:02.019Z,83.84
2022-10-19T06:01:29.564Z,83.90
2022-10-19T06:03:58.342Z,82.59
2022-10-19T06:06:27.226Z,83.60
2022-10-19T06:08:55.852Z,82.81
2022-10-19T06:11:26.824Z,82.43
2022-10-19T06:13:56.550Z,83.05
2022-10-19T06:16:24.972Z,80.59
2022-10-19T06:18:53.363Z,79.50
2022-10-19T06:21:22.687Z,80.02
2022-10-19T06:23:58.447Z,77.76
2022-10-19T06:26:26.317Z,76.48
2022-10-19T06:28:56.794Z,75.74
2022-10-19T06:31:23.804Z,74.79
2022-10-19T06:33:51.103Z,73.97
2022-10-19T06:36:22.884Z,73.50
2022-10-19T06:38:50.106Z,72.86
2022-10-19T06:41:17.726Z,72.33
2022-10-19T06:43:44.745Z,72.05
2022-10-19T06:46:20.656Z,71.81
2022-10-19T06:48:56.786Z,71.27
2022-10-19T06:51:26.167Z,70.69
2022-10-19T06:53:56.538Z,72.89
2022-10-19T06:56:24.848Z,76.58
2022-10-19T06:58:52.107Z,76.84
2022-10-19T07:01:19.150Z,70.77
2022-10-19T07:03:46.140Z,72.65
2022-10-19T07:06:13.677Z,67.73
2022-10-19T07:08:41.817Z,72.10
2022-10-19T07:11:12.702Z,67.22
2022-10-19T07:13:39.669Z,66.13
2022-10-19T07:16:16.000Z,65.79
2022-10-19T07:18:47.570Z,67.86
2022-10-19T07:21:15.977Z,63.72
2022-10-19T07:23:45.135Z,62.95
2022-10-19T07:26:24.781Z,65.30
2022-10-19T07:28:52.592Z,64.41
2022-10-19T07:31:22.430Z,60.71
2022-10-19T07:33:57.504Z,59.53
2022-10-19T07:36:25.256Z,58.46
2022-10-19T07:38:52.532Z,58.06
2022-10-19T07:41:22.027Z,58.88
2022-10-19T07:43:50.083Z,60.82
2022-10-19T07:46:19.967Z,55.53
2022-10-19T07:48:47.546Z,57.87
2022-10-19T07:51:16.200Z,55.11
2022-10-19T07:53:43.564Z,53.36
2022-10-19T07:56:11.827Z,52.34
2022-10-19T07:58:39.106Z,52.64
2022-10-19T08:01:11.463Z,49.92
2022-10-19T08:06:26.365Z,47.30
2022-10-19T08:08:54.007Z,47.23
2022-10-19T08:11:27.570Z,46.42
2022-10-19T08:13:54.849Z,45.82
2022-10-19T08:16:23.251Z,44.78
2022-10-19T08:18:51.100Z,44.16
2022-10-19T08:21:18.713Z,44.29
2022-10-19T08:23:45.599Z,43.96
2022-10-19T08:26:12.497Z,43.87
2022-10-19T08:28:39.778Z,43.70
2022-10-19T08:31:16.000Z,43.09
2022-10-19T08:33:43.212Z,42.75
2022-10-19T08:36:12.021Z,42.58
2022-10-19T08:38:39.489Z,41.92
2022-10-19T08:41:17.559Z,41.38
2022-10-19T08:43:57.936Z,39.61
2022-10-19T08:47:06.066Z,39.05
2022-10-19T08:49:34.745Z,38.38
2022-10-19T08:52:05.353Z,38.09
2022-10-19T08:54:42.735Z,37.95
2022-10-19T08:57:15.306Z,37.96
2022-10-19T09:00:01.314Z,37.50
2022-10-19T09:02:36.873Z,37.69
2022-10-19T09:05:28.820Z,37.44
2022-10-19T09:07:55.905Z,37.41
2022-10-19T09:10:26.907Z,37.49
2022-10-19T09:13:00.623Z,37.33
2022-10-19T09:15:40.231Z,37.40
2022-10-19T09:18:24.019Z,36.98
2022-10-19T09:21:13.357Z,36.78
2022-10-19T09:23:47.301Z,35.82
2022-10-19T09:26:17.724Z,35.42
2022-10-19T09:29:06.836Z,35.37
2022-10-19T09:31:40.690Z,34.99
2022-10-19T09:34:34.064Z,34.56
2022-10-19T09:37:01.029Z,34.77
2022-10-19T09:39:29.901Z,34.21
2022-10-19T09:41:58.268Z,34.25
2022-10-19T09:44:26.486Z,34.85
2022-10-19T09:47:02.942Z,34.18
2022-10-19T09:49:47.152Z,34.15
2022-10-19T09:52:39.505Z,34.07
2022-10-19T09:55:15.880Z,34.21
2022-10-19T09:57:48.092Z,34.05
2022-10-19T10:00:24.480Z,33.60
2022-10-19T10:02:53.736Z,32.92
2022-10-19T10:05:30.013Z,33.27
2022-10-19T10:07:56.972Z,32.96
2022-10-19T10:10:30.568Z,32.60
2022-10-19T10:13:01.750Z,32.42
2022-10-19T10:15:36.603Z,31.96
2022-10-19T10:18:04.019Z,32.28
2022-10-19T10:20:32.719Z,31.79
2022-10-19T10:23:00.783Z,31.47
2022-10-19T10:25:31.632Z,31.60
2022-10-19T10:28:04.560Z,30.52
2022-10-19T10:30:35.523Z,30.73
2022-10-19T10:33:15.774Z,31.09
2022-10-19T10:35:55.866Z,31.74
2022-10-19T10:38:27.882Z,30.70
2022-10-19T10:41:00.208Z,30.03
2022-10-19T10:43:33.190Z,30.38
2022-10-19T10:46:13.904Z,30.56
2022-10-19T10:48:45.188Z,29.68
2022-10-19T10:51:26.138Z,28.51
2022-10-19T10:54:17.032Z,28.98
2022-10-19T10:56:54.769Z,29.33
2022-10-19T10:59:31.654Z,28.54
2022-10-19T11:02:03.439Z,28.32
2022-10-19T11:04:37.469Z,27.53
2022-10-19T11:07:32.990Z,27.89
2022-10-19T11:10:09.931Z,27.63
2022-10-19T11:12:41.793Z,26.97
2022-10-19T11:15:26.839Z,26.60
2022-10-19T11:18:22.694Z,26.52
2022-10-19T11:21:00.335Z,26.32
2022-10-19T11:23:34.782Z,26.65
2022-10-19T11:26:31.372Z,25.97
2022-10-19T11:29:10.375Z,25.46
2022-10-19T11:31:50.558Z,25.01
2022-10-19T11:34:43.454Z,25.06
2022-10-19T11:37:45.830Z,24.39
2022-10-19T11:41:12.867Z,25.44
2022-10-19T11:43:54.380Z,25.02
2022-10-19T11:46:25.480Z,28.08
2022-10-19T11:49:04.542Z,26.02
2022-10-19T11:51:49.975Z,25.09
2022-10-19T11:54:22.616Z,24.23
2022-10-19T11:57:03.492Z,24.19
2022-10-19T12:00:15.693Z,24.81
2022-10-19T12:03:32.197Z,24.81
2022-10-19T12:06:09.442Z,24.67
2022-10-19T12:08:42.370Z,24.89
2022-10-19T12:11:28.974Z,23.96
2022-10-19T12:14:01.064Z,23.85
2022-10-19T12:16:38.362Z,23.87
2022-10-19T12:19:06.977Z,24.04
2022-10-19T12:21:41.139Z,24.49
2022-10-19T12:24:15.766Z,24.68
2022-10-19T12:26:44.998Z,23.81
2022-10-19T12:29:22.095Z,24.87
2022-10-19T12:31:50.306Z,27.11
2022-10-19T12:34:29.362Z,24.38
2022-10-19T12:37:02.963Z,24.59
2022-10-19T12:40:05.405Z,24.63
2022-10-19T12:42:38.976Z,24.54
2022-10-19T12:45:18.438Z,24.88
2022-10-19T12:48:13.166Z,25.25
2022-10-19T12:50:50.080Z,25.23
2022-10-19T12:53:27.907Z,24.76
2022-10-19T12:56:03.923Z,24.53
2022-10-19T12:58:36.797Z,24.72
2022-10-19T13:01:06.549Z,24.67
2022-10-19T13:03:37.261Z,24.86
2022-10-19T13:06:18.571Z,25.33
2022-10-19T13:08:54.448Z,25.57
2022-10-19T13:11:22.242Z,25.47
2022-10-19T13:14:07.308Z,25.28
2022-10-19T13:16:34.174Z,25.21
2022-10-19T13:19:13.164Z,25.04
2022-10-19T13:21:47.955Z,24.54
2022-10-19T13:24:29.341Z,24.76
2022-10-19T13:27:02.338Z,24.46
2022-10-19T13:29:44.863Z,24.81
2022-10-19T13:32:37.828Z,24.75
2022-10-19T13:35:25.767Z,25.46
2022-10-19T13:38:14.337Z,25.43
2022-10-19T13:40:50.181Z,25.54
2022-10-19T13:43:22.617Z,25.75
2022-10-19T13:46:13.543Z,25.07
2022-10-19T13:48:49.610Z,25.10
2022-10-19T13:52:00.598Z,24.70
2022-10-19T13:54:45.593Z,24.79
2022-10-19T13:57:15.123Z,24.81
2022-10-19T14:00:30.259Z,24.80
2022-10-19T14:03:15.456Z,24.80
2022-10-19T14:05:57.349Z,24.14
2022-10-19T14:08:55.019Z,24.28
2022-10-19T14:11:33.914Z,24.52
2022-10-19T14:14:07.950Z,24.48
2022-10-19T14:16:35.448Z,24.27
2022-10-19T14:19:02.261Z,24.45
2022-10-19T14:21:37.038Z,24.32
2022-10-19T14:24:20.040Z,24.50
2022-10-19T14:26:47.522Z,24.73
2022-10-19T14:29:14.769Z,25.07
2022-10-19T14:31:42.070Z,25.08
2022-10-19T14:34:09.674Z,25.65
2022-10-19T14:36:39.523Z,25.75
2022-10-19T14:41:36.329Z,26.34
2022-10-19T14:44:35.152Z,26.02
2022-10-19T14:47:02.686Z,26.13
2022-10-19T14:49:29.581Z,26.47
2022-10-19T14:52:01.511Z,27.02
2022-10-19T14:54:41.144Z,27.89
2022-10-19T14:57:19.771Z,28.45
2022-10-19T14:59:50.400Z,28.87
2022-10-19T15:02:31.265Z,29.47
2022-10-19T15:05:00.765Z,29.92
2022-10-19T15:07:41.918Z,30.52
2022-10-19T15:10:19.199Z,30.83
2022-10-19T15:12:46.330Z,31.17
2022-10-19T15:15:19.684Z,31.71
2022-10-19T15:18:30.192Z,31.95
2022-10-19T15:21:12.958Z,32.34
2022-10-19T15:23:46.799Z,32.64
2022-10-19T15:26:21.003Z,32.77
2022-10-19T15:28:49.248Z,33.46
2022-10-19T15:31:18.503Z,33.45
2022-10-19T15:33:49.736Z,33.77
2022-10-19T15:36:17.694Z,33.99
2022-10-19T15:39:18.474Z,34.25
2022-10-19T15:41:53.129Z,34.64
2022-10-19T15:44:42.986Z,35.10
2022-10-19T15:47:15.481Z,35.70
2022-10-19T15:49:42.259Z,35.91
2022-10-19T15:52:27.202Z,36.34
2022-10-19T15:54:56.059Z,36.70
2022-10-19T15:57:28.708Z,37.19
2022-10-19T15:59:57.309Z,37.26
2022-10-19T16:02:25.412Z,37.76
2022-10-19T16:04:53.827Z,37.72
2022-10-19T16:07:32.753Z,38.21
2022-10-19T16:10:00.020Z,38.57
2022-10-19T16:12:27.314Z,38.79
2022-10-19T16:14:54.969Z,39.16
2022-10-19T16:17:22.879Z,39.13
2022-10-19T16:19:49.785Z,39.34
2022-10-19T16:22:17.048Z,39.48
2022-10-19T16:24:44.006Z,39.51
2022-10-19T16:27:15.278Z,39.77
2022-10-19T16:29:44.391Z,39.91
2022-10-19T16:32:11.496Z,40.05
2022-10-19T16:34:38.646Z,40.17
2022-10-19T16:37:07.108Z,40.17
2022-10-19T16:39:35.091Z,40.48
2022-10-19T16:42:02.344Z,40.48
2022-10-19T16:44:29.578Z,40.65
2022-10-19T16:46:57.997Z,40.52
2022-10-19T16:49:25.686Z,40.65
2022-10-19T16:51:56.296Z,41.01
2022-10-19T16:54:26.859Z,41.17
2022-10-19T16:56:53.668Z,41.51
2022-10-19T16:59:20.571Z,41.53
2022-10-19T17:01:48.433Z,41.88
2022-10-19T17:04:18.098Z,42.15
2022-10-19T17:06:45.112Z,42.41
2022-10-19T17:11:59.111Z,42.77
2022-10-19T17:14:27.523Z,43.06
2022-10-19T17:16:54.367Z,43.14
2022-10-19T17:19:21.392Z,43.36
2022-10-19T17:21:49.459Z,43.52
2022-10-19T17:24:21.612Z,43.70
2022-10-19T17:26:51.003Z,43.69
2022-10-19T17:29:19.135Z,43.88
2022-10-19T17:31:46.329Z,43.96
2022-10-19T17:34:13.347Z,44.25
2022-10-19T17:36:44.905Z,44.31
2022-10-19T17:39:17.701Z,44.25
2022-10-19T17:41:46.432Z,44.11
2022-10-19T17:44:13.985Z,44.34
2022-10-19T17:46:42.108Z,44.50
2022-10-19T17:49:10.389Z,44.58
2022-10-19T17:51:37.911Z,44.80
2022-10-19T17:54:12.397Z,45.08
2022-10-19T17:56:40.373Z,45.33
2022-10-19T17:59:09.224Z,45.58
2022-10-19T18:01:37.131Z,45.83
2022-10-19T18:04:04.918Z,46.02
2022-10-19T18:06:34.777Z,46.27
2022-10-19T18:09:04.601Z,46.22
2022-10-19T18:11:38.705Z,46.28
2022-10-19T18:14:08.391Z,46.85
2022-10-19T18:16:38.543Z,46.98
2022-10-19T18:19:07.102Z,46.96
2022-10-19T18:21:40.649Z,47.44
2022-10-19T18:24:14.289Z,47.52
2022-10-19T18:26:43.207Z,47.75
2022-10-19T18:29:21.793Z,47.78
2022-10-19T18:31:51.818Z,48.58
2022-10-19T18:34:24.661Z,47.86
2022-10-19T18:36:53.817Z,48.11
2022-10-19T18:39:21.440Z,48.21
2022-10-19T18:41:54.627Z,48.33
2022-10-19T18:44:26.340Z,48.49
2022-10-19T18:46:54.449Z,48.99
2022-10-19T18:49:21.497Z,49.20
2022-10-19T18:51:54.111Z,49.49
2022-10-19T18:54:22.743Z,49.62
2022-10-19T18:56:49.552Z,50.05
2022-10-19T18:59:16.601Z,50.42
2022-10-19T19:01:43.699Z,50.91
2022-10-19T19:04:10.968Z,51.15
2022-10-19T19:06:39.485Z,51.37
2022-10-19T19:09:13.769Z,51.76
2022-10-19T19:11:41.494Z,52.10
2022-10-19T19:14:16.281Z,52.33
2022-10-19T19:16:44.789Z,52.80
2022-10-19T19:19:14.124Z,52.96
2022-10-19T19:21:44.974Z,52.91
2022-10-19T19:24:21.966Z,52.95
2022-10-19T19:26:55.076Z,52.75
2022-10-19T19:29:22.819Z,52.89
2022-10-19T19:31:50.750Z,53.30
2022-10-19T19:34:18.158Z,53.55
2022-10-19T19:36:47.748Z,54.12
2022-10-19T19:39:17.318Z,54.13
2022-10-19T19:41:44.200Z,54.38
2022-10-19T19:44:11.462Z,54.51
2022-10-19T19:46:39.066Z,54.69
2022-10-19T19:49:06.075Z,55.05
2022-10-19T19:51:33.605Z,55.06
2022-10-19T19:54:00.569Z,55.35
2022-10-19T19:56:29.047Z,55.49
2022-10-19T19:58:58.060Z,55.98
2022-10-19T20:01:25.424Z,56.43
2022-10-19T20:03:52.573Z,56.83
2022-10-19T20:06:23.556Z,57.14
2022-10-19T20:08:53.083Z,59.48
2022-10-19T20:11:20.093Z,58.63
2022-10-19T20:13:47.063Z,58.11
2022-10-19T20:16:19.820Z,58.10
2022-10-19T20:18:52.619Z,58.15
2022-10-19T20:21:23.536Z,58.83
2022-10-19T20:23:52.202Z,58.99
2022-10-19T20:26:23.379Z,59.31
2022-10-19T20:28:50.450Z,59.50
2022-10-19T20:31:17.920Z,59.44
2022-10-19T20:33:45.392Z,59.82
2022-10-19T20:36:17.236Z,59.96
2022-10-19T20:39:05.685Z,60.08
2022-10-19T20:41:32.583Z,60.17
2022-10-19T20:43:59.906Z,60.14
2022-10-19T20:46:30.674Z,60.31
2022-10-19T20:49:00.836Z,60.41
2022-10-19T20:51:32.024Z,60.48
2022-10-19T20:54:01.561Z,60.85
2022-10-19T20:56:31.130Z,61.32
2022-10-19T20:59:00.637Z,61.53
2022-10-19T21:01:29.983Z,61.58
2022-10-19T21:04:00.628Z,62.13
2022-10-19T21:06:29.864Z,62.34
2022-10-19T21:08:56.954Z,62.58
2022-10-19T21:11:26.679Z,62.80
2022-10-19T21:13:56.118Z,63.30
2022-10-19T21:16:24.647Z,63.38
2022-10-19T21:18:51.457Z,63.58
2022-10-19T21:21:29.851Z,63.87
2022-10-19T21:24:00.003Z,63.55
2022-10-19T21:26:31.017Z,63.68
2022-10-19T21:28:58.468Z,63.74
2022-10-19T21:31:26.773Z,63.66
2022-10-19T21:33:54.408Z,63.72
2022-10-19T21:36:25.376Z,64.05
2022-10-19T21:38:52.297Z,64.31
2022-10-19T21:41:25.337Z,64.45
2022-10-19T21:43:53.733Z,65.02
2022-10-19T21:46:21.935Z,65.68
2022-10-19T21:48:49.441Z,66.01
2022-10-19T21:51:25.092Z,66.15
2022-10-19T21:53:51.978Z,66.24
2022-10-19T21:56:18.867Z,66.52
2022-10-19T21:58:47.046Z,66.83
2022-10-19T22:01:14.691Z,67.21
2022-10-19T22:03:41.639Z,67.22
2022-10-19T22:06:08.586Z,67.17
2022-10-19T22:08:35.539Z,67.55
2022-10-19T22:11:10.971Z,67.63
2022-10-19T22:13:37.855Z,67.61
2022-10-19T22:16:19.254Z,67.92
2022-10-19T22:18:46.627Z,68.49
2022-10-19T22:21:25.171Z,68.58
2022-10-19T22:23:57.922Z,68.61
2022-10-19T22:26:28.106Z,68.97
2022-10-19T22:28:57.060Z,69.07
2022-10-19T22:31:25.706Z,69.20
2022-10-19T22:33:52.514Z,69.55
2022-10-19T22:36:19.459Z,69.76
2022-10-19T22:38:46.298Z,70.40
2022-10-19T22:41:13.122Z,70.71
2022-10-19T22:43:39.962Z,71.73
2022-10-19T22:46:06.874Z,71.86
2022-10-19T22:48:34.039Z,72.36
2022-10-19T22:51:00.941Z,72.65
2022-10-19T22:53:27.814Z,73.08
2022-10-19T22:55:54.623Z,73.41
2022-10-19T22:58:21.421Z,73.58
2022-10-19T23:00:59.896Z,74.14
2022-10-19T23:03:26.744Z,74.27
2022-10-19T23:05:53.498Z,74.37
2022-10-19T23:08:20.366Z,74.61
2022-10-19T23:10:47.176Z,74.96
2022-10-19T23:13:14.074Z,75.01
2022-10-19T23:15:43.973Z,75.56
2022-10-19T23:18:12.032Z,75.89
2022-10-19T23:20:39.075Z,76.14
2022-10-19T23:23:06.263Z,76.55
2022-10-19T23:28:19.862Z,76.90
2022-10-19T23:30:46.694Z,76.94
2022-10-19T23:33:13.479Z,77.07
2022-10-19T23:35:40.260Z,76.92
2022-10-19T23:38:07.023Z,77.49
2022-10-19T23:40:33.822Z,77.59
2022-10-19T23:43:00.680Z,77.48
2022-10-19T23:45:27.447Z,77.94
2022-10-19T23:47:54.253Z,77.86
2022-10-19T23:50:21.023Z,78.27
2022-10-19T23:55:14.606Z,78.64
2022-10-19T23:57:41.358Z,78.65
